Garden, Michigan
Current Conditions -  °F | °C
As of 12:55 PM on Sunday 21 Dec 2014 (Local Time) from KISQ Reporting Station
Haze Haze  
Wind Chill: 26°   Ceiling: 1300
Heat Index: 35°   Visibility: 5mi
Dew Point: 34°   Wind: 12mph
Humidity: 96%   Direction: 170°S
Pressure: 30.1"   Gusts: NA
Location:  45.77°N, 86.55°W
Report Text: KISQ 211755Z AUTO 17010KT 5SM BR OVC013 02/01 A3010 RMK AO2 T00150009 10015 21015
Loading
Personal Weather Stations






























Interactive Weather Map New forecast layout! Learn more

10-Day Weather Forecast

Advertisements
Track Severe Weather on mobile